New Stanton, Pennsylvania
Current Conditions -  °F | °C
As of 2:45 PM on Friday 28 Nov 2014 (Local Time) from KLBE Reporting Station
Scattered Clouds Scattered Clouds  
Wind Chill: 19°   Ceiling: Unl
Heat Index: 27°   Visibility: 10mi
Dew Point: 14°   Wind: 7mph
Humidity: 59%   Direction: 250°WSW
Pressure: 30.26"   Gusts: NA
Location:  40.22°N, 79.61°W
Report Text: KLBE 281945Z 25006KT 10SM SCT037 M03/M10 A3026
Loading
Personal Weather Stations






























Interactive Weather Map New forecast layout! Learn more

10-Day Weather Forecast

Advertisements
Track Severe Weather on mobile